Reklama

Seznam meteostanic a jejich METAR

Vyhledat místa podle abecedy:
A B C D E F G H I J K L M N O P Q R S T U V W X Y Z

Filtrovat:

ID stanice:
a/nebo
Název místa (fulltext):
 
Místo (ID)Naposledy načteno 
Milešovka (Milesovka) 07.04.2020 22:00 UTC Zobrazit data
Místo: Milešovka
Teplota: 11 °C (pocitová: 5.8 °C)
Vítr: 6 m/s z(e) 110°
Počasí: slunečno
Dohlednost: 40 km
Zákl. oblačnosti: N/A
Vlhkost: 47%
Mošnov (Ostrava/Mo) 07.04.2020 22:00 UTC Zobrazit data
Místo: Mošnov
Teplota: 3 °C (pocitová: -3.3 °C)
Vítr: 3 m/s z(e) 240°
Počasí: slunečno
Dohlednost: 30 km
Zákl. oblačnosti: N/A
Vlhkost: 60%
Macau (VMMC) 07.04.2020 22:00 UTC Zobrazit METAR
VMMC 072200Z 36007KT 9999 FEW020 SCT045 19/17 Q1015 NOSIG
Madeira (LPMA) 07.04.2020 22:00 UTC Zobrazit METAR
LPMA 072200Z 34004KT 9999 SCT013 20/16 Q1022
Madrid (LETO) 07.04.2020 22:00 UTC Zobrazit METAR
LETO 072200Z VRB01KT 9999 SCT035 BKN045 13/13 Q1025 NOSIG
Majuro Atoll (PKMA) Zatím nenačteno  
Malabo (FGSL) 07.04.2020 22:00 UTC Zobrazit METAR
FGSL 072200Z 22003KT 170V240 9999 FEW010 26/26 Q1012 NOSIG
Malaga (LEMG) 07.04.2020 22:00 UTC Zobrazit METAR
LEMG 072200Z 00000KT 9999 FEW018 BKN030 16/13 Q1025 NOSIG
Male (VRMM) 07.04.2020 22:00 UTC Zobrazit METAR
VRMM 072200Z 29004KT 9999 FEW018 29/25 Q1010 NOSIG
Malmo (ESMS) 07.04.2020 21:50 UTC Zobrazit METAR
ESMS 072150Z 00000KT CAVOK 03/M00 Q1033
Malta (LMML) 07.04.2020 21:45 UTC Zobrazit METAR
LMML 072145Z 36006KT 9999 FEW012 14/12 Q1025 NOSIG
Managua (MNMG) 07.04.2020 22:00 UTC Zobrazit METAR
MNMG 072200Z 07018KT 9999 FEW026 37/18 Q1008 A2978 NOSIG
Manchester (EGCC) 06.04.2020 14:50 UTC Zobrazit METAR
EGCC 061450Z AUTO 29011KT 260V330 9999 SCT040 BKN046 13/03 Q1018
Manila (RPLL) 07.04.2020 22:00 UTC Zobrazit METAR
RPLL 072200Z 01007KT 9999 FEW025 28/23 Q1010 NOSIG RMK A2983
Manzini (FDMS) 05.04.2020 06:00 UTC Zobrazit METAR
FDMS 050600Z 09003KT 9999 SCT025 BKN035 19/13 Q1026 NOSIG
Maputo (FQMA) 07.04.2020 22:00 UTC Zobrazit METAR
FQMA 072200Z 22014KT 9999 BKN020 21/18 Q1018 NOSIG
Maribor (LJMB) 07.04.2020 20:00 UTC Zobrazit METAR
LJMB 072000Z 34002KT CAVOK 06/M04 Q1032
Marrakech (GMMX) 07.04.2020 22:00 UTC Zobrazit METAR
GMMX 072200Z 02008KT 350V060 CAVOK 24/12 Q1020 NOSIG
Maseru (FXMM) 07.04.2020 09:00 UTC Zobrazit METAR
FXMM 070900Z 09012KT 9999 NSC 16/M00 Q1019 NOSIG
Mauritius (FIMP) 07.04.2020 22:00 UTC Zobrazit METAR
FIMP 072200Z 09014KT 9999 FEW018 BKN050 26/21 Q1017
Melilla (GEML) 07.04.2020 22:00 UTC Zobrazit METAR
GEML 072200Z AUTO 07005KT 030V100 9999 FEW014 SCT022 16/14 Q1025
Mexico City (MMMX) 07.04.2020 18:45 UTC Zobrazit METAR
MMMX 071845Z 11007KT 7SM FEW025 SCT080 26/05 A3038 NOSIG RMK 8/130 HZY MDT CU ARND DSNT CB E
Midway Atoll, Sand Island (PMDY) 27.03.2020 23:56 UTC Zobrazit METAR
PMDY 272356Z AUTO 10011KT 5SM HZ SCT014 BKN030 OVC038 24/19 A3020 RMK AO2 SLP225 T02390189 10244 20200 58013
Milan (LIMC) 07.04.2020 21:50 UTC Zobrazit METAR
LIMC 072150Z 06004KT CAVOK 09/02 Q1029 NOSIG
Minsk (UMMM) 11.07.2016 14:00 UTC Zobrazit METAR
UMMM 111400Z ///// //// BKN040 BKN200 28/16 Q1009 NOSIG RMK QFE738
Mitilini (LGMT) 07.04.2020 21:50 UTC Zobrazit METAR
LGMT 072150Z 36008KT 9999 FEW025 11/04 Q1020
Mogadishu (HCMM) 07.04.2020 14:00 UTC Zobrazit METAR
HCMM 071400Z 10010KT 9999 FEW023 31/23 Q1008
Monrovia (GLRB) 07.04.2020 14:00 UTC Zobrazit METAR
GLRB 071400Z 22008KT 9999 BKN022 32/26 Q1011 NOSIG
Montevideo (SUMU) 07.04.2020 22:00 UTC Zobrazit METAR
SUMU 072200Z 21011KT 9999 BKN023 16/05 Q1023 NOSIG
Montpellier/ Mediterranee (LFMT) 07.04.2020 22:00 UTC Zobrazit METAR
LFMT 072200Z AUTO 01006KT CAVOK 09/07 Q1027 NOSIG
Moscow (UUEE) Zatím nenačteno  
Mostar (LQMO) 28.03.2020 10:00 UTC Zobrazit METAR
LQMO 281000Z VRB04KT 9999 FEW050 16/03 Q1012
Mount Pleasant (EGYP) 07.04.2020 21:50 UTC Zobrazit METAR
EGYP 072150Z 31009KT CAVOK 12/04 Q1016
Munich (EDDM) 07.04.2020 21:50 UTC Zobrazit METAR
EDDM 072150Z 05005KT CAVOK 09/01 Q1027 NOSIG
Muscat (OOMS) 07.04.2020 21:50 UTC Zobrazit METAR
OOMS 072150Z VRB02KT CAVOK 24/09 Q1008 NOSIG
Reklama

Počasí na Váš email

Emaily jsou bez reklamy a bez spamu



Odhlásit newsletter

Reklama


Lunární kalendář

  • 15.04.
  • 23.04.
  • 30.04.
  • 07.05.





Vyhledat na internetu:
Reklama